Overview Statistics Trail Chart Weather Telemetry Raw packets
 

This is the latest recevied weather packets stored in our database for station/object EA4CZ-7. If no packets are shown the sender has not sent any weather packets the latest 10 day(s).

<< 1 2 3 4 5 >>
Time Temp. Humidity Pressure Rain* Wind** Luminosity Snow
1788266843 33.89° C 38% 1008.6 hPa - - - -
1788266543 33.33° C 38% 1008.7 hPa - - - -
1788266243 33.33° C 38% 1008.5 hPa - - - -
1788265943 33.33° C 38% 1008.6 hPa - - - -
1788265643 32.78° C 38% 1008.6 hPa - - - -
1788265343 32.78° C 39% 1008.6 hPa - - - -
1788265043 33.33° C 38% 1008.6 hPa - - - -
1788262935 30.56° C 38% 1011.2 hPa - - - -
1788262635 30.56° C 37% 1011.3 hPa - - - -
1788262034 30.56° C 37% 1011.1 hPa - - - -
1788261734 30.56° C 37% 1011.4 hPa - - - -
1788260834 30.56° C 37% 1011.2 hPa - - - -
1788260234 30.56° C 37% 1011.4 hPa - - - -
1788259934 30.56° C 37% 1011.4 hPa - - - -
1788259033 30.56° C 37% 1011.6 hPa - - - -
1788258433 30.56° C 37% 1011.7 hPa - - - -
1788258133 30.56° C 37% 1011.7 hPa - - - -
1788253033 30° C 38% 1012 hPa - - - -
1788252732 30° C 38% 1011.9 hPa - - - -
1788252133 30° C 38% 1012 hPa - - - -
1788251833 30° C 38% 1011.7 hPa - - - -
1788251233 29.44° C 39% 1011.6 hPa - - - -
1788250932 29.44° C 39% 1011.6 hPa - - - -
1788250032 29.44° C 39% 1011.9 hPa - - - -
1788228997 28.33° C 34% 1010.2 hPa - - - -

* Rain since midnight (hover to see other rain measurements)
** Current wind speed in m/s (hover to see current wind gust speed)